Time;durP1;ratioP1;P1;durP2;ratioP2;P2;SDS_P1;SDS_P2;PMS_P1;PMS_P2;Temp;Humidity;BMP_temperature;BMP_pressure;BME280_temperature;BME280_humidity;BME280_pressure;Samples;Min_cycle;Max_cycle;Signal;HPM_P1;HPM_P2
2022/08/28 00:01:52;;;;;;;;;8.00;6.00;;;;;24.13;38.84;101244.22;5053956;28;45551;-72
2022/08/28 00:04:17;;;;;;;;;6.33;6.33;;;;;24.05;39.14;101248.19;5056829;28;45525;-69
2022/08/28 00:06:43;;;;;;;;;9.00;7.67;;;;;24.03;39.25;101242.03;5059484;28;45824;-70
2022/08/28 00:09:09;;;;;;;;;5.67;5.67;;;;;24.04;38.85;101247.31;5054346;28;45480;-75
2022/08/28 00:11:37;;;;;;;;;10.67;7.00;;;;;23.95;39.07;101230.81;5054148;28;45563;-68
2022/08/28 00:14:05;;;;;;;;;7.33;6.00;;;;;24.02;39.15;101243.84;5052710;28;46462;-67
2022/08/28 00:16:32;;;;;;;;;5.00;5.00;;;;;23.97;39.06;101232.47;5051300;28;45521;-64
2022/08/28 00:18:58;;;;;;;;;8.33;6.00;;;;;23.69;39.39;101198.94;5053796;28;45482;-77
2022/08/28 00:21:24;;;;;;;;;8.33;8.00;;;;;23.65;40.20;101239.25;5065032;28;45468;-73
2022/08/28 00:23:51;;;;;;;;;9.00;8.00;;;;;23.15;40.43;101183.53;5049070;28;45919;-70
2022/08/28 00:27:51;;;;;;;;;6.00;6.00;;;;;23.41;40.28;101231.38;5040445;28;45485;-67
2022/08/28 00:29:03;;;;;;;;;8.33;6.67;;;;;23.42;40.38;101229.56;5057211;28;45720;-67
2022/08/28 00:31:29;;;;;;;;;6.67;6.67;;;;;23.45;40.20;101226.78;5054161;28;45523;-67
2022/08/28 00:33:54;;;;;;;;;6.00;5.00;;;;;23.38;40.86;101244.03;5053992;28;45398;-67
2022/08/28 00:36:20;;;;;;;;;7.67;7.00;;;;;23.35;40.62;101228.97;5054428;28;45548;-66
2022/08/28 00:38:45;;;;;;;;;6.33;6.33;;;;;23.43;40.57;101231.31;5055207;28;45354;-67
2022/08/28 00:41:11;;;;;;;;;7.67;6.67;;;;;23.41;40.33;101226.03;5054400;28;45378;-67
2022/08/28 00:43:41;;;;;;;;;8.00;8.00;;;;;23.40;40.14;101220.78;5055867;28;45326;-68
2022/08/28 00:46:14;;;;;;;;;8.00;7.33;;;;;23.58;40.24;101244.00;5054756;28;45365;-67
2022/08/28 00:48:40;;;;;;;;;4.33;4.33;;;;;23.59;40.32;101251.09;5054404;28;45537;-67
2022/08/28 00:53:53;;;;;;;;;5.00;5.00;;;;;23.60;40.31;101241.25;5048182;28;45437;-67
2022/08/28 00:56:19;;;;;;;;;5.00;5.00;;;;;23.52;40.04;101236.25;5054183;28;45376;-67
2022/08/28 00:58:48;;;;;;;;;4.00;4.00;;;;;23.57;40.11;101244.09;5054947;28;45611;-67
2022/08/28 01:01:14;;;;;;;;;9.33;7.00;;;;;23.48;40.21;101237.31;5053699;28;45642;-66
2022/08/28 01:03:41;;;;;;;;;7.00;6.00;;;;;23.46;40.23;101250.75;5053897;28;45249;-69
2022/08/28 01:06:09;;;;;;;;;5.33;5.00;;;;;23.43;40.41;101248.22;5055164;28;45403;-68
2022/08/28 01:08:37;;;;;;;;;4.67;4.67;;;;;23.32;40.49;101241.59;5051780;28;45383;-67
2022/08/28 09:21:25;;;;;;;;;11.33;9.67;;;;;23.45;45.96;101286.44;5100775;27;45984;-67
2022/08/28 09:23:54;;;;;;;;;10.67;9.33;;;;;23.74;45.77;101299.53;5104431;27;45588;-70
2022/08/28 09:26:24;;;;;;;;;11.67;10.67;;;;;23.94;46.10;101302.16;5106154;27;45467;-66
2022/08/28 09:29:05;;;;;;;;;8.33;6.67;;;;;24.23;45.14;101298.19;5105663;27;45603;-68
2022/08/28 09:31:41;;;;;;;;;7.33;6.00;;;;;24.31;44.61;101276.41;5104904;27;45526;-69
2022/08/28 09:34:23;;;;;;;;;9.00;7.00;;;;;24.82;43.87;101312.41;5102645;27;45856;-68
2022/08/28 09:36:51;;;;;;;;;8.00;5.00;;;;;24.98;43.74;101293.72;5089227;27;45922;-68
2022/08/28 09:39:26;;;;;;;;;5.67;5.33;;;;;25.27;43.12;101305.72;5104237;27;45442;-75
2022/08/28 09:45:19;;;;;;;;;11.67;9.33;;;;;25.37;42.55;101266.78;5096745;27;45524;-69
2022/08/28 09:47:49;;;;;;;;;8.00;8.00;;;;;25.70;41.85;101297.25;5098932;27;45605;-67
2022/08/28 09:50:33;;;;;;;;;9.00;5.67;;;;;25.89;41.91;101303.44;5098676;27;45597;-67
2022/08/28 09:53:08;;;;;;;;;9.00;7.00;;;;;25.85;41.29;101253.53;5104112;27;47624;-66
2022/08/28 09:55:56;;;;;;;;;9.00;8.33;;;;;26.27;41.33;101291.56;5092153;27;45579;-68
2022/08/28 09:58:31;;;;;;;;;6.67;6.33;;;;;26.27;41.12;101281.72;5094496;27;45513;-66
2022/08/28 10:01:10;;;;;;;;;11.67;9.00;;;;;26.44;40.65;101291.50;5102219;27;45518;-67
2022/08/28 10:03:50;;;;;;;;;11.33;9.00;;;;;26.51;40.13;101276.78;5093264;27;45596;-67
2022/08/28 10:06:25;;;;;;;;;13.33;11.00;;;;;26.70;39.81;101291.91;5090183;27;45403;-73
2022/08/28 10:09:12;;;;;;;;;11.67;10.33;;;;;26.72;39.68;101289.97;5092594;27;45492;-77
2022/08/28 10:12:00;;;;;;;;;16.33;13.67;;;;;26.68;39.50;101289.28;5094337;27;45419;-74
2022/08/28 10:14:46;;;;;;;;;18.67;14.00;;;;;26.57;39.79;101281.81;5092361;27;45483;-69
2022/08/28 10:17:24;;;;;;;;;10.33;10.33;;;;;26.66;40.08;101285.81;5089680;27;45528;-66
2022/08/28 10:19:49;;;;;;;;;12.67;12.67;;;;;26.61;39.75;101286.09;5107119;27;45541;-66
2022/08/28 10:22:42;;;;;;;;;12.00;10.67;;;;;26.47;40.05;101266.31;5114226;27;45614;-66
2022/08/28 10:25:50;;;;;;;;;10.33;9.33;;;;;26.75;39.47;101281.75;5109894;27;46501;-65
2022/08/28 10:28:34;;;;;;;;;9.00;7.00;;;;;27.06;39.46;101287.06;5107478;27;45342;-65
2022/08/28 10:31:16;;;;;;;;;5.33;5.33;;;;;27.24;39.00;101278.91;5105383;27;45416;-67
2022/08/28 10:34:04;;;;;;;;;14.33;12.33;;;;;27.34;37.72;101290.88;5096150;27;45514;-71
2022/08/28 10:36:32;;;;;;;;;14.67;14.00;;;;;27.23;38.14;101279.88;5099683;27;46753;-67
2022/08/28 10:39:11;;;;;;;;;11.00;10.67;;;;;27.00;38.65;101281.19;5096318;27;45419;-69
2022/08/28 10:41:43;;;;;;;;;7.00;7.00;;;;;27.18;38.68;101274.75;5096329;27;45711;-71
2022/08/28 10:44:18;;;;;;;;;11.67;10.00;;;;;27.16;38.56;101256.97;5095420;27;45780;-65
2022/08/28 10:46:49;;;;;;;;;9.67;9.33;;;;;27.51;38.02;101284.47;5080434;27;47578;-74
2022/08/28 10:49:27;;;;;;;;;8.00;8.00;;;;;27.74;37.44;101287.56;5082673;27;45305;-72
2022/08/28 10:51:59;;;;;;;;;10.67;10.67;;;;;27.64;37.74;101281.88;5097400;27;45562;-73
2022/08/28 10:54:31;;;;;;;;;10.00;9.33;;;;;27.71;37.71;101275.16;5098443;27;45383;-66
2022/08/28 10:57:09;;;;;;;;;7.33;6.00;;;;;28.00;37.06;101269.84;5094557;27;47607;-73
2022/08/28 10:59:36;;;;;;;;;9.00;9.00;;;;;28.32;36.59;101274.03;5082625;27;45488;-69
2022/08/28 11:02:05;;;;;;;;;10.67;9.00;;;;;28.36;36.15;101280.13;5100488;27;45490;-66
2022/08/28 11:04:32;;;;;;;;;8.00;7.00;;;;;28.45;35.80;101284.03;5097463;27;45427;-66
2022/08/28 11:07:04;;;;;;;;;10.00;10.00;;;;;28.57;35.72;101288.69;5094159;27;47055;-67
2022/08/28 11:09:35;;;;;;;;;10.00;9.33;;;;;28.58;36.18;101274.22;5085325;27;45696;-70
2022/08/28 11:12:18;;;;;;;;;6.75;6.25;;;;;28.92;35.97;101272.84;5095024;27;45778;-71
2022/08/28 11:14:48;;;;;;;;;10.00;10.00;;;;;29.01;35.60;101271.38;5092091;27;45620;-72
2022/08/28 11:17:29;;;;;;;;;9.00;9.00;;;;;28.57;35.41;101224.00;5078783;27;46009;-67
2022/08/28 11:20:21;;;;;;;;;9.25;9.25;;;;;28.76;35.61;101269.47;5091617;27;45602;-70
2022/08/28 11:23:14;;;;;;;;;10.00;10.00;;;;;28.87;35.57;101271.44;5099495;27;45467;-72
2022/08/28 11:25:56;;;;;;;;;9.50;9.50;;;;;28.76;35.38;101247.91;5095457;27;45470;-66
2022/08/28 11:28:25;;;;;;;;;12.00;10.25;;;;;28.65;36.53;101259.38;5094664;27;45475;-67
2022/08/28 11:30:57;;;;;;;;;9.00;9.00;;;;;28.86;36.05;101264.34;5097901;27;45498;-67
2022/08/28 11:33:42;;;;;;;;;11.50;9.50;;;;;28.69;35.38;101184.59;5080058;27;45399;-66
2022/08/28 11:36:20;;;;;;;;;8.00;8.00;;;;;29.50;34.63;101265.38;5095631;27;45413;-67
2022/08/28 11:38:56;;;;;;;;;9.50;7.50;;;;;29.77;34.36;101267.13;5097103;27;45640;-65
2022/08/28 11:41:26;;;;;;;;;9.50;7.25;;;;;29.88;33.75;101256.44;5095031;27;45526;-67
2022/08/28 11:44:18;;;;;;;;;9.00;7.75;;;;;29.93;32.82;101251.56;5094117;27;45362;-67
2022/08/28 11:46:54;;;;;;;;;9.75;9.00;;;;;29.87;33.28;101257.41;5085156;27;45656;-66
2022/08/28 11:49:25;;;;;;;;;8.50;8.50;;;;;29.75;33.64;101264.53;5094756;27;46605;-64
2022/08/28 11:52:09;;;;;;;;;9.00;8.50;;;;;29.45;34.27;101262.13;5094684;27;45382;-65
2022/08/28 11:54:58;;;;;;;;;6.50;6.50;;;;;29.26;34.61;101254.44;5094904;27;45451;-67
2022/08/28 11:57:50;;;;;;;;;6.25;5.50;;;;;29.32;34.25;101258.53;5074875;27;45608;-65
2022/08/28 12:00:29;;;;;;;;;9.25;6.00;;;;;29.35;34.89;101259.22;5093874;27;46758;-67
2022/08/28 12:03:09;;;;;;;;;8.50;8.50;;;;;29.71;34.09;101273.84;5093694;27;45503;-68
2022/08/28 12:05:41;;;;;;;;;9.00;9.00;;;;;30.06;33.03;101267.75;5094800;27;45475;-65
2022/08/28 12:08:08;;;;;;;;;10.00;8.00;;;;;29.77;33.96;101265.28;5094992;27;45371;-65
2022/08/28 12:10:34;;;;;;;;;12.75;11.00;;;;;29.49;34.64;101260.06;5093407;27;46054;-65
2022/08/28 12:13:07;;;;;;;;;8.50;8.50;;;;;29.17;34.93;101258.63;5094847;27;45590;-67
2022/08/28 12:15:32;;;;;;;;;8.50;8.50;;;;;28.95;35.15;101271.81;5094772;27;45556;-68
2022/08/28 12:17:59;;;;;;;;;9.25;9.00;;;;;28.84;35.25;101269.81;5080132;27;45457;-65
2022/08/28 12:20:31;;;;;;;;;12.25;10.50;;;;;28.62;35.47;101270.38;5092724;27;45686;-65
2022/08/28 12:23:00;;;;;;;;;11.50;8.50;;;;;28.40;35.96;101272.69;5094292;27;45586;-66
2022/08/28 12:25:41;;;;;;;;;9.25;8.50;;;;;28.14;35.74;101267.13;5082781;27;45620;-65
2022/08/28 12:28:26;;;;;;;;;11.00;9.67;;;;;27.94;36.58;101270.25;5095133;27;45534;-67
2022/08/28 12:31:03;;;;;;;;;8.00;8.00;;;;;27.77;36.91;101268.56;5093651;27;45529;-66
2022/08/28 12:33:42;;;;;;;;;11.75;6.75;;;;;27.86;36.49;101268.88;5095019;27;45299;-68
2022/08/28 12:36:15;;;;;;;;;10.33;10.33;;;;;28.20;35.92;101264.06;5099171;27;45330;-66
2022/08/28 12:38:50;;;;;;;;;9.33;9.33;;;;;28.94;34.94;101256.56;5099277;27;45656;-67
2022/08/28 12:41:17;;;;;;;;;8.00;7.00;;;;;29.41;34.01;101257.06;5098594;27;46195;-66
2022/08/28 12:43:46;;;;;;;;;7.75;7.75;;;;;29.71;34.05;101227.94;5098178;27;45367;-68
2022/08/28 12:46:21;;;;;;;;;9.25;9.25;;;;;30.88;31.89;101256.44;5083373;27;45885;-67
2022/08/28 12:48:50;;;;;;;;;7.00;6.25;;;;;30.93;32.18;101254.25;5093888;27;45404;-66
2022/08/28 12:51:27;;;;;;;;;7.00;7.00;;;;;30.21;32.97;101244.19;5093963;27;45321;-65
2022/08/28 12:53:59;;;;;;;;;5.00;5.00;;;;;29.78;34.09;101236.44;5097384;27;45710;-66
2022/08/28 12:56:28;;;;;;;;;6.00;6.00;;;;;29.62;33.73;101238.50;5097234;27;45253;-66
2022/08/28 12:58:55;;;;;;;;;6.25;6.00;;;;;29.78;33.66;101237.34;5098770;27;45452;-66
2022/08/28 13:01:28;;;;;;;;;6.50;6.50;;;;;29.88;33.58;101224.03;5098319;27;46073;-66
2022/08/28 13:03:58;;;;;;;;;9.25;9.00;;;;;29.55;33.80;101190.34;5092679;27;45345;-67
2022/08/28 13:06:31;;;;;;;;;6.50;6.50;;;;;29.53;34.36;101240.00;5094836;27;45464;-66
2022/08/28 13:09:02;;;;;;;;;8.00;8.00;;;;;29.83;33.64;101223.50;5093902;27;45417;-67
2022/08/28 13:11:36;;;;;;;;;6.50;6.50;;;;;30.25;33.06;101202.44;5093212;27;46629;-67
2022/08/28 13:14:04;;;;;;;;;5.00;5.00;;;;;30.97;32.13;101224.16;5094031;27;45500;-68
2022/08/28 13:16:34;;;;;;;;;6.00;6.00;;;;;31.46;31.81;101222.22;5090078;27;45476;-69
2022/08/28 13:19:03;;;;;;;;;5.25;5.25;;;;;31.91;30.87;101224.94;5093463;27;45306;-72
2022/08/28 13:21:45;;;;;;;;;6.00;5.25;;;;;32.27;30.98;101217.56;5082205;27;46671;-68
2022/08/28 13:24:22;;;;;;;;;11.25;10.00;;;;;32.51;30.07;101220.13;5086092;27;45456;-67
2022/08/28 13:27:03;;;;;;;;;9.75;9.75;;;;;32.03;29.59;101190.63;5098132;27;45407;-66
2022/08/28 13:29:29;;;;;;;;;7.75;7.75;;;;;31.30;30.91;101194.59;5097043;27;45338;-66
2022/08/28 13:32:00;;;;;;;;;8.00;7.00;;;;;31.00;31.79;101223.91;5092642;27;48407;-70
2022/08/28 13:34:33;;;;;;;;;9.50;7.50;;;;;31.13;31.75;101217.56;5085340;27;45447;-70
2022/08/28 13:37:02;;;;;;;;;6.00;6.00;;;;;31.40;31.95;101225.41;5091476;27;45445;-67
2022/08/28 13:39:30;;;;;;;;;9.25;9.25;;;;;31.43;30.57;101219.75;5094090;27;45572;-67
2022/08/28 13:42:14;;;;;;;;;9.75;9.75;;;;;31.16;31.44;101207.38;5093330;27;46245;-67
2022/08/28 13:44:47;;;;;;;;;9.60;8.60;;;;;31.10;31.20;101206.97;5098097;27;45335;-69
2022/08/28 13:47:13;;;;;;;;;11.25;9.75;;;;;31.00;32.19;101206.81;5081980;27;45553;-68
2022/08/28 13:49:39;;;;;;;;;11.25;8.50;;;;;30.89;31.89;101177.88;5093786;27;46034;-67
2022/08/28 13:52:06;;;;;;;;;9.00;9.00;;;;;30.51;31.55;101199.69;5085765;27;46627;-65
2022/08/28 13:54:32;;;;;;;;;10.00;10.00;;;;;30.14;32.76;101195.16;5094858;27;45478;-67
2022/08/28 13:56:57;;;;;;;;;7.50;7.50;;;;;29.76;33.22;101170.94;5097308;27;45577;-68
2022/08/28 13:59:23;;;;;;;;;8.00;8.00;;;;;29.87;33.27;101197.16;5093792;27;45485;-70
2022/08/28 14:04:40;;;;;;;;;17.25;14.00;;;;;29.71;33.75;101191.97;5092621;27;45617;-70
2022/08/28 14:07:06;;;;;;;;;10.00;10.00;;;;;29.62;33.77;101154.84;5095491;27;45777;-67
2022/08/28 14:09:41;;;;;;;;;10.50;8.25;;;;;29.95;33.53;101179.41;5101851;27;45171;-64
2022/08/28 14:12:08;;;;;;;;;7.75;7.75;;;;;29.78;33.37;101123.06;5100564;27;45603;-66
2022/08/28 14:14:36;;;;;;;;;8.00;7.00;;;;;30.19;32.99;101173.19;5100272;27;45306;-66
2022/08/28 14:17:02;;;;;;;;;5.50;5.50;;;;;30.35;33.26;101179.22;5092920;27;45440;-69
2022/08/28 14:19:28;;;;;;;;;6.25;4.00;;;;;30.44;33.01;101174.94;5095475;27;45513;-66
2022/08/28 14:21:54;;;;;;;;;9.00;9.00;;;;;30.47;32.71;101171.16;5100128;27;46435;-68
2022/08/28 14:24:20;;;;;;;;;8.75;8.00;;;;;30.49;32.30;101188.97;5095562;27;45480;-69
2022/08/28 14:26:46;;;;;;;;;11.00;9.25;;;;;30.29;32.28;101179.66;5093408;27;45566;-66
2022/08/28 14:29:14;;;;;;;;;8.50;7.50;;;;;30.19;33.14;101178.59;5090348;27;45445;-68
2022/08/28 14:31:42;;;;;;;;;6.75;6.75;;;;;30.11;32.65;101170.19;5101499;27;46015;-67
2022/08/28 14:34:14;;;;;;;;;5.50;5.00;;;;;30.09;32.73;101172.13;5101528;27;45416;-65
2022/08/28 14:36:40;;;;;;;;;11.00;10.00;;;;;29.92;32.84;101162.56;5101010;27;46690;-67
2022/08/28 14:39:14;;;;;;;;;10.00;10.00;;;;;29.69;33.47;101175.91;5101082;27;45420;-65
2022/08/28 14:41:46;;;;;;;;;8.50;8.50;;;;;29.46;33.75;101155.06;5097426;27;46104;-64
2022/08/28 14:44:12;;;;;;;;;10.75;10.50;;;;;29.30;33.67;101156.13;5096493;27;45443;-65
2022/08/28 14:46:37;;;;;;;;;9.50;8.00;;;;;29.29;33.71;101151.72;5100040;27;45325;-65
2022/08/28 14:49:09;;;;;;;;;7.25;7.25;;;;;29.39;34.21;101150.06;5097077;27;45475;-68
2022/08/28 14:51:37;;;;;;;;;6.00;6.00;;;;;29.44;34.03;101154.28;5095309;27;46017;-65
2022/08/28 14:54:04;;;;;;;;;8.00;8.00;;;;;29.38;33.68;101150.22;5097061;27;45742;-66
2022/08/28 14:56:31;;;;;;;;;8.00;8.00;;;;;29.25;33.68;101154.72;5098076;27;45421;-65
2022/08/28 14:58:58;;;;;;;;;9.00;8.25;;;;;29.30;33.99;101150.72;5098502;27;45620;-65
2022/08/28 15:01:38;;;;;;;;;9.25;9.25;;;;;29.34;33.86;101151.38;5096192;27;45735;-66
2022/08/28 15:04:06;;;;;;;;;12.25;8.00;;;;;29.51;33.96;101159.13;5095593;27;45420;-65
2022/08/28 15:06:31;;;;;;;;;8.50;8.50;;;;;29.71;33.16;101149.66;5080323;27;45473;-66
2022/08/28 15:08:59;;;;;;;;;7.25;7.25;;;;;30.04;33.22;101141.91;5096217;27;45739;-66
2022/08/28 15:11:27;;;;;;;;;6.00;6.00;;;;;30.28;32.59;101132.03;5099669;27;45367;-65
2022/08/28 15:13:53;;;;;;;;;9.25;9.25;;;;;30.47;32.35;101146.84;5096105;27;45475;-66
2022/08/28 15:16:26;;;;;;;;;8.00;6.50;;;;;30.63;32.52;101144.69;5093298;27;45419;-65
2022/08/28 15:18:54;;;;;;;;;7.75;7.25;;;;;30.71;31.58;101127.91;5086215;27;45355;-67
2022/08/28 15:21:25;;;;;;;;;6.50;6.50;;;;;30.84;31.95;101142.22;5094430;27;45619;-65
2022/08/28 15:23:52;;;;;;;;;10.00;10.00;;;;;30.87;31.12;101147.38;5084764;27;45382;-67
2022/08/28 15:26:21;;;;;;;;;8.25;8.25;;;;;30.60;31.31;101140.38;5097419;27;45503;-66
2022/08/28 15:28:47;;;;;;;;;8.75;8.75;;;;;30.47;31.57;101144.13;5096647;27;45413;-66
2022/08/28 15:31:12;;;;;;;;;6.50;6.00;;;;;30.41;31.91;101140.91;5098216;27;45480;-68
2022/08/28 15:33:38;;;;;;;;;8.50;8.50;;;;;30.32;31.98;101138.03;5103382;27;45487;-66
2022/08/28 15:36:04;;;;;;;;;8.00;8.00;;;;;30.14;31.86;101142.97;5100292;27;45334;-66
2022/08/28 15:41:22;;;;;;;;;9.50;8.50;;;;;29.85;33.21;101147.78;5095971;27;45802;-69
2022/08/28 15:41:25;;;;;;;;;10.00;9.00;;;;;29.56;32.41;101143.47;5091321;27;46048;-66
2022/08/28 15:43:58;;;;;;;;;11.25;10.50;;;;;29.51;33.10;101139.38;5098089;27;45386;-68
2022/08/28 15:46:24;;;;;;;;;9.00;6.75;;;;;29.35;32.85;101134.22;5099267;27;45461;-67
2022/08/28 15:48:50;;;;;;;;;15.00;11.00;;;;;29.33;32.80;101130.78;5090083;27;45702;-67
2022/08/28 15:51:16;;;;;;;;;9.25;8.75;;;;;29.30;32.99;101141.78;5096513;27;46088;-68
2022/08/28 15:53:43;;;;;;;;;7.75;7.00;;;;;29.10;32.99;101111.69;5095636;27;45389;-68
2022/08/28 15:56:10;;;;;;;;;9.00;7.75;;;;;29.39;33.02;101146.53;5097987;27;45428;-68
2022/08/28 15:58:36;;;;;;;;;7.75;6.50;;;;;29.36;32.84;101152.16;5100566;27;45377;-69
2022/08/28 16:01:04;;;;;;;;;7.25;7.25;;;;;29.39;33.46;101141.13;5102229;27;45562;-73
2022/08/28 16:03:30;;;;;;;;;8.00;8.00;;;;;29.22;33.28;101138.75;5100237;27;45439;-73
2022/08/28 16:05:56;;;;;;;;;7.00;6.25;;;;;29.24;33.24;101137.69;5100530;27;45542;-69
2022/08/28 16:08:21;;;;;;;;;5.50;5.50;;;;;29.18;33.63;101122.78;5096575;27;45321;-73
2022/08/28 16:10:48;;;;;;;;;7.00;6.50;;;;;29.03;33.30;101104.09;5097071;27;45889;-70
2022/08/28 16:13:16;;;;;;;;;6.00;6.00;;;;;29.15;33.59;101146.41;5100442;27;45864;-76
2022/08/28 16:15:43;;;;;;;;;7.50;7.50;;;;;29.07;33.54;101124.50;5100174;27;45515;-75
2022/08/28 16:18:11;;;;;;;;;8.75;7.75;;;;;29.02;33.29;101126.63;5085131;27;45444;-74
2022/08/28 16:20:46;;;;;;;;;7.25;7.25;;;;;28.95;33.60;101124.38;5088371;27;45567;-74
2022/08/28 16:23:13;;;;;;;;;4.75;4.75;;;;;28.86;33.70;101119.59;5097934;27;45749;-75
2022/08/28 16:25:39;;;;;;;;;8.50;8.00;;;;;28.91;33.58;101138.16;5097975;27;45354;-76
2022/08/28 16:28:06;;;;;;;;;9.25;8.75;;;;;28.75;34.00;101139.19;5096553;27;45569;-76
2022/08/28 16:30:38;;;;;;;;;9.00;7.75;;;;;28.60;34.25;101125.94;5099164;27;46801;-75
2022/08/28 16:33:05;;;;;;;;;6.75;6.25;;;;;28.56;34.92;101136.03;5099572;27;45329;-70
2022/08/28 16:35:31;;;;;;;;;4.75;4.75;;;;;28.38;35.26;101131.84;5094009;27;45412;-70
2022/08/28 16:37:57;;;;;;;;;10.00;6.75;;;;;28.33;35.46;101140.22;5094840;27;45798;-71
2022/08/28 16:40:23;;;;;;;;;9.00;8.00;;;;;28.12;35.38;101123.69;5096183;27;46797;-74
2022/08/28 16:42:49;;;;;;;;;6.25;6.25;;;;;28.18;35.20;101128.63;5096621;27;45774;-69
2022/08/28 16:45:17;;;;;;;;;7.75;7.00;;;;;28.09;35.50;101122.00;5094637;27;45389;-65
2022/08/28 16:47:42;;;;;;;;;6.75;6.75;;;;;28.01;35.33;101118.13;5094909;27;45894;-66
2022/08/28 16:50:10;;;;;;;;;8.50;8.50;;;;;28.07;35.60;101133.84;5094172;27;46107;-67
2022/08/28 16:52:37;;;;;;;;;8.50;7.00;;;;;28.03;35.32;101135.03;5093367;27;45555;-68
2022/08/28 16:55:04;;;;;;;;;7.00;7.00;;;;;27.96;35.50;101129.19;5094611;27;45523;-66
2022/08/28 16:57:33;;;;;;;;;7.50;5.50;;;;;27.91;35.63;101134.88;5094538;27;45365;-66
2022/08/28 16:59:59;;;;;;;;;6.25;4.00;;;;;27.67;35.63;101098.75;5089768;27;45657;-66
2022/08/28 17:02:26;;;;;;;;;8.00;7.50;;;;;27.84;36.18;101138.06;5094264;27;45603;-67
2022/08/28 17:04:54;;;;;;;;;9.00;7.75;;;;;27.83;36.00;101137.16;5096175;27;45434;-67
2022/08/28 17:07:20;;;;;;;;;9.25;7.50;;;;;27.77;35.97;101139.38;5096072;27;45501;-67
2022/08/28 17:09:46;;;;;;;;;9.50;9.00;;;;;27.73;35.51;101138.69;5095151;27;45475;-67
2022/08/28 17:12:13;;;;;;;;;10.50;10.25;;;;;27.65;36.13;101132.94;5097119;27;45517;-67
2022/08/28 17:14:39;;;;;;;;;7.25;7.25;;;;;27.63;36.18;101137.56;5085051;27;45301;-70
2022/08/28 17:17:05;;;;;;;;;11.33;10.00;;;;;27.58;36.14;101131.63;5084201;27;45353;-67
2022/08/28 17:19:33;;;;;;;;;11.25;9.00;;;;;27.45;36.16;101116.25;5088035;27;45640;-65
2022/08/28 17:24:50;;;;;;;;;8.00;8.00;;;;;27.30;36.66;101117.19;5093981;27;45414;-67
2022/08/28 17:27:16;;;;;;;;;7.50;7.50;;;;;27.34;36.70;101123.25;5094479;27;45436;-68
2022/08/28 17:29:42;;;;;;;;;8.75;8.25;;;;;27.21;36.83;101115.06;5097826;27;46521;-69
2022/08/28 17:32:08;;;;;;;;;10.75;9.00;;;;;27.20;36.62;101119.59;5097191;27;45419;-65
2022/08/28 17:34:34;;;;;;;;;8.50;7.00;;;;;27.12;36.78;101107.53;5099044;27;45460;-69
2022/08/28 17:37:01;;;;;;;;;8.00;5.75;;;;;27.26;37.09;101131.78;5093049;27;45798;-67
2022/08/28 17:39:27;;;;;;;;;9.00;7.00;;;;;27.07;37.24;101097.06;5093737;27;46191;-66
2022/08/28 17:41:53;;;;;;;;;8.25;8.25;;;;;27.24;37.16;101125.63;5096079;27;45840;-66
2022/08/28 17:44:19;;;;;;;;;6.75;6.75;;;;;27.17;36.98;101118.88;5097819;27;45287;-66
2022/08/28 17:46:44;;;;;;;;;8.00;8.00;;;;;27.17;36.95;101114.38;5096259;27;45599;-66
2022/08/28 17:49:10;;;;;;;;;7.00;7.00;;;;;27.17;36.69;101110.81;5097155;27;46164;-65
2022/08/28 17:51:37;;;;;;;;;7.00;7.00;;;;;27.19;36.67;101116.94;5092523;27;45678;-66
2022/08/28 17:54:03;;;;;;;;;7.25;7.25;;;;;27.17;36.75;101126.94;5096437;27;45601;-65
2022/08/28 17:56:28;;;;;;;;;9.00;7.25;;;;;27.15;36.85;101128.88;5088515;27;45619;-65
2022/08/28 17:58:54;;;;;;;;;11.50;8.00;;;;;27.11;36.76;101127.31;5095979;27;45993;-67
2022/08/28 18:01:24;;;;;;;;;8.75;8.00;;;;;27.08;37.01;101129.25;5094908;27;45352;-66
2022/08/28 18:03:51;;;;;;;;;7.50;7.25;;;;;27.04;37.01;101132.22;5097577;27;45673;-66
2022/08/28 18:06:17;;;;;;;;;7.00;6.00;;;;;26.90;36.83;101105.31;5097895;27;45791;-67
2022/08/28 18:08:46;;;;;;;;;6.75;6.75;;;;;26.91;36.64;101109.72;5095580;27;47869;-67
2022/08/28 18:11:16;;;;;;;;;6.00;6.00;;;;;26.97;36.88;101126.34;5083157;27;45555;-65
2022/08/28 18:13:42;;;;;;;;;4.50;4.50;;;;;26.97;36.88;101136.22;5097389;27;45645;-67
2022/08/28 18:16:08;;;;;;;;;4.00;4.00;;;;;26.97;37.09;101139.78;5096749;27;45514;-65
2022/08/28 18:18:37;;;;;;;;;9.00;6.00;;;;;26.94;36.94;101144.47;5099923;27;46268;-65
2022/08/28 18:21:03;;;;;;;;;6.00;6.00;;;;;26.85;36.67;101136.00;5101108;27;45444;-65
2022/08/28 18:23:29;;;;;;;;;7.50;6.25;;;;;26.79;37.06;101140.88;5100465;27;45483;-65
2022/08/28 18:26:01;;;;;;;;;5.75;5.75;;;;;26.70;37.19;101128.00;5099854;27;45246;-66
2022/08/28 18:28:27;;;;;;;;;8.00;6.50;;;;;26.79;37.08;101147.13;5100341;27;45390;-66
2022/08/28 18:30:53;;;;;;;;;7.00;7.00;;;;;26.75;37.03;101144.72;5098290;27;45668;-66
2022/08/28 18:33:21;;;;;;;;;6.50;6.50;;;;;26.74;37.00;101143.88;5097013;27;45495;-66
2022/08/28 18:35:48;;;;;;;;;7.25;6.00;;;;;26.69;37.32;101137.88;5088155;27;45379;-66
2022/08/28 18:38:15;;;;;;;;;6.50;6.25;;;;;26.71;37.33;101143.16;5096633;27;45937;-67
2022/08/28 18:40:42;;;;;;;;;6.67;6.33;;;;;26.76;36.80;101157.19;5096356;27;45759;-67
2022/08/28 18:43:08;;;;;;;;;7.75;7.75;;;;;26.69;37.19;101159.38;5096664;27;45448;-68
2022/08/28 18:45:34;;;;;;;;;6.00;6.00;;;;;26.68;36.94;101156.78;5096408;27;45370;-66
2022/08/28 18:48:01;;;;;;;;;9.25;7.00;;;;;26.61;37.07;101157.13;5095973;27;45656;-68
2022/08/28 18:50:29;;;;;;;;;7.00;6.00;;;;;26.50;37.34;101143.41;5080772;27;45562;-67
2022/08/28 18:52:57;;;;;;;;;7.00;7.00;;;;;26.47;37.62;101157.03;5094603;27;45338;-69
2022/08/28 18:55:28;;;;;;;;;7.67;6.33;;;;;26.46;37.54;101168.75;5096549;27;45406;-74
2022/08/28 18:57:54;;;;;;;;;5.75;5.75;;;;;26.41;37.54;101162.75;5096071;27;45872;-69
2022/08/28 19:00:21;;;;;;;;;7.67;6.67;;;;;26.41;37.55;101168.13;5096902;27;45313;-65
2022/08/28 19:02:51;;;;;;;;;7.00;6.67;;;;;26.29;37.50;101152.72;5097104;27;45364;-68
2022/08/28 19:05:19;;;;;;;;;8.33;7.00;;;;;26.43;37.66;101172.47;5095912;27;45522;-66
2022/08/28 19:07:45;;;;;;;;;7.33;7.33;;;;;26.39;38.02;101178.97;5100027;27;45510;-69
2022/08/28 19:10:11;;;;;;;;;8.75;8.00;;;;;26.36;38.27;101179.16;5100557;27;45606;-67
2022/08/28 19:12:38;;;;;;;;;11.00;10.00;;;;;26.24;37.95;101171.78;5090379;27;45348;-66
2022/08/28 19:15:09;;;;;;;;;7.67;7.00;;;;;26.20;38.62;101189.03;5095088;27;45762;-68
2022/08/28 19:17:37;;;;;;;;;7.00;7.00;;;;;26.13;38.25;101191.19;5086801;27;45761;-69
2022/08/28 19:20:07;;;;;;;;;8.25;6.00;;;;;26.08;38.59;101192.38;5095304;27;45472;-70
2022/08/28 19:22:37;;;;;;;;;7.67;7.33;;;;;26.14;38.09;101209.03;5089121;27;45499;-69
2022/08/28 19:25:05;;;;;;;;;6.00;5.50;;;;;26.10;38.54;101199.44;5096475;27;45325;-72
2022/08/28 19:27:37;;;;;;;;;7.00;7.00;;;;;26.07;38.55;101201.41;5098950;27;45614;-68
2022/08/28 19:30:04;;;;;;;;;6.67;6.67;;;;;26.12;38.44;101213.59;5099289;27;45865;-69
2022/08/28 19:32:30;;;;;;;;;7.00;6.00;;;;;26.10;38.49;101209.28;5084074;27;45766;-72
2022/08/28 19:34:59;;;;;;;;;5.00;5.00;;;;;26.11;38.11;101216.41;5097394;27;45412;-69
2022/08/28 19:37:24;;;;;;;;;7.00;5.75;;;;;25.92;37.77;101197.75;5085702;27;45617;-70
2022/08/28 19:39:51;;;;;;;;;8.00;8.00;;;;;25.98;38.20;101211.72;5099817;27;45346;-67
2022/08/28 19:42:23;;;;;;;;;9.33;7.33;;;;;25.88;38.19;101210.47;5099957;27;45324;-72
2022/08/28 19:44:50;;;;;;;;;6.00;6.00;;;;;25.90;38.36;101234.53;5099153;27;45394;-68
2022/08/28 19:47:18;;;;;;;;;6.67;6.00;;;;;25.87;38.32;101215.94;5080873;27;45531;-68
2022/08/28 19:49:51;;;;;;;;;10.00;7.33;;;;;25.88;38.37;101226.56;5096311;27;45334;-73
2022/08/28 19:52:17;;;;;;;;;7.33;7.33;;;;;25.80;37.89;101226.09;5095834;27;45464;-75
2022/08/28 19:54:43;;;;;;;;;11.00;10.67;;;;;25.53;38.38;101198.91;5095510;27;45445;-72
2022/08/28 19:57:09;;;;;;;;;8.00;8.00;;;;;25.74;38.06;101240.69;5094552;27;46437;-70
2022/08/28 19:59:35;;;;;;;;;8.33;6.67;;;;;25.70;38.11;101246.28;5094361;27;45341;-73